Time;durP1;ratioP1;P1;durP2;ratioP2;P2;SDS_P1;SDS_P2;PMS_P1;PMS_P2;Temp;Humidity;BMP_temperature;BMP_pressure;BME280_temperature;BME280_humidity;BME280_pressure;Samples;Min_cycle;Max_cycle;Signal;HPM_P1;HPM_P2
2022/08/14 00:01:44;;;;;;;15.77;14.30;;;;;;;;;;5091756;28;20135;-83
2022/08/14 00:04:22;;;;;;;17.33;15.10;;;;;;;;;;5090940;28;20106;-82
2022/08/14 00:07:07;;;;;;;16.42;14.93;;;;;;;;;;5091582;28;20056;-82
2022/08/14 00:09:35;;;;;;;16.65;14.70;;;;;;;;;;5089781;28;20055;-81
2022/08/14 00:12:22;;;;;;;15.73;14.35;;;;;;;;;;5090150;28;20505;-83
2022/08/14 00:14:59;;;;;;;16.38;14.77;;;;;;;;;;5089567;28;20070;-82
2022/08/14 00:17:28;;;;;;;15.90;14.27;;;;;;;;;;5089722;28;20049;-81
2022/08/14 00:19:57;;;;;;;16.20;14.60;;;;;;;;;;5090875;28;20124;-82
2022/08/14 00:22:25;;;;;;;15.48;14.13;;;;;;;;;;5090783;28;20055;-82
2022/08/14 00:25:12;;;;;;;16.60;15.00;;;;;;;;;;5089424;28;20052;-82
2022/08/14 00:27:41;;;;;;;16.48;14.85;;;;;;;;;;5090369;28;20059;-82
2022/08/14 00:30:09;;;;;;;16.98;14.80;;;;;;;;;;5090078;28;20512;-81
2022/08/14 00:32:40;;;;;;;16.92;15.32;;;;;;;;;;5088913;28;20048;-81
2022/08/14 00:35:27;;;;;;;16.30;14.70;;;;;;;;;;5089285;28;20044;-82
2022/08/14 00:38:16;;;;;;;17.17;15.57;;;;;;;;;;5090307;28;20050;-82
2022/08/14 00:40:43;;;;;;;18.00;16.40;;;;;;;;;;5088641;28;20082;-81
2022/08/14 00:43:12;;;;;;;17.73;15.93;;;;;;;;;;5089981;28;20078;-81
2022/08/14 00:45:41;;;;;;;17.13;15.35;;;;;;;;;;5088918;28;20401;-83
2022/08/14 00:48:09;;;;;;;16.75;14.95;;;;;;;;;;5089783;28;20588;-81
2022/08/14 00:50:36;;;;;;;16.65;15.13;;;;;;;;;;5088535;28;20060;-81
2022/08/14 00:53:04;;;;;;;17.17;14.80;;;;;;;;;;5088437;28;20094;-81
2022/08/14 00:55:40;;;;;;;16.98;15.38;;;;;;;;;;5089600;28;20040;-83
2022/08/14 01:00:59;;;;;;;16.70;15.20;;;;;;;;;;5089982;28;20048;-82
2022/08/14 01:03:28;;;;;;;18.10;15.50;;;;;;;;;;5087865;28;20052;-82
2022/08/14 01:05:58;;;;;;;16.23;14.82;;;;;;;;;;5073962;28;20140;-81
2022/08/14 01:08:27;;;;;;;18.25;16.60;;;;;;;;;;5074476;28;20515;-82
2022/08/14 01:11:14;;;;;;;17.77;15.98;;;;;;;;;;5074591;28;20045;-81
2022/08/14 01:13:46;;;;;;;17.38;15.73;;;;;;;;;;5075695;28;20051;-81
2022/08/14 01:16:29;;;;;;;18.25;16.50;;;;;;;;;;5075642;28;20040;-81
2022/08/14 01:21:46;;;;;;;19.23;16.00;;;;;;;;;;5075476;28;20094;-81
2022/08/14 01:24:20;;;;;;;17.92;16.23;;;;;;;;;;5074311;28;20090;-82
2022/08/14 01:26:56;;;;;;;19.27;17.40;;;;;;;;;;5073928;28;20099;-81
2022/08/14 01:29:26;;;;;;;18.65;16.88;;;;;;;;;;5075495;28;20081;-82
2022/08/14 01:32:13;;;;;;;16.52;14.90;;;;;;;;;;5075142;28;20048;-82
2022/08/14 01:34:53;;;;;;;18.25;16.42;;;;;;;;;;5074063;28;20509;-82
2022/08/14 01:37:45;;;;;;;18.23;16.33;;;;;;;;;;5075012;28;20048;-81
2022/08/14 01:40:22;;;;;;;17.05;15.43;;;;;;;;;;5074183;28;20477;-82
2022/08/14 01:42:59;;;;;;;18.10;16.45;;;;;;;;;;5074925;28;20053;-83
2022/08/14 01:45:28;;;;;;;19.08;17.27;;;;;;;;;;5075022;28;20059;-82
2022/08/14 01:48:07;;;;;;;18.35;16.58;;;;;;;;;;5073952;28;20402;-82
2022/08/14 01:50:40;;;;;;;19.00;17.27;;;;;;;;;;5074877;28;20094;-82
2022/08/14 01:53:08;;;;;;;19.08;17.27;;;;;;;;;;5074635;28;20080;-82
2022/08/14 01:55:37;;;;;;;19.77;17.77;;;;;;;;;;5074555;28;20512;-82
2022/08/14 01:58:09;;;;;;;19.90;17.80;;;;;;;;;;5073530;28;20051;-80
2022/08/14 02:00:52;;;;;;;19.85;17.95;;;;;;;;;;5074233;28;20048;-81
2022/08/14 02:03:22;;;;;;;20.10;18.25;;;;;;;;;;5074405;28;20548;-81
2022/08/14 02:05:49;;;;;;;20.00;17.92;;;;;;;;;;5074248;28;20052;-81
2022/08/14 02:08:16;;;;;;;19.10;17.40;;;;;;;;;;5074608;28;20048;-81
2022/08/14 02:11:16;;;;;;;19.00;17.20;;;;;;;;;;5073174;28;20061;-82
2022/08/14 02:13:45;;;;;;;21.33;18.25;;;;;;;;;;5072890;28;20125;-81
2022/08/14 02:16:17;;;;;;;20.05;17.48;;;;;;;;;;5073180;28;20076;-81
2022/08/14 02:18:49;;;;;;;19.85;18.02;;;;;;;;;;5072823;28;20044;-81
2022/08/14 02:21:17;;;;;;;21.15;17.58;;;;;;;;;;5072548;28;20044;-81
2022/08/14 02:23:49;;;;;;;20.23;17.95;;;;;;;;;;5073990;28;20123;-82
2022/08/14 02:26:21;;;;;;;20.50;18.48;;;;;;;;;;5073956;28;20049;-82
2022/08/14 02:28:58;;;;;;;20.13;18.17;;;;;;;;;;5072795;28;20094;-82
2022/08/14 02:31:31;;;;;;;19.17;17.30;;;;;;;;;;5073782;28;20048;-82
2022/08/14 02:34:11;;;;;;;18.98;17.17;;;;;;;;;;5072363;28;20055;-80
2022/08/14 02:36:50;;;;;;;19.65;17.73;;;;;;;;;;5073717;28;20135;-80
2022/08/14 02:39:32;;;;;;;;;;;;;;;;;;5073096;28;20426;-82
2022/08/14 02:42:00;;;;;;;20.70;18.70;;;;;;;;;;5073396;28;19921;-81
2022/08/14 02:44:30;;;;;;;20.73;18.58;;;;;;;;;;5073667;28;20126;-82
2022/08/14 02:47:07;;;;;;;21.13;19.02;;;;;;;;;;5072237;28;20041;-80
2022/08/14 02:49:45;;;;;;;21.30;19.30;;;;;;;;;;5072323;28;20451;-82
2022/08/14 02:52:20;;;;;;;20.55;18.55;;;;;;;;;;5071749;28;20052;-80
2022/08/14 02:55:08;;;;;;;21.13;18.95;;;;;;;;;;5073297;28;20052;-81
2022/08/14 02:57:36;;;;;;;20.85;18.75;;;;;;;;;;5071950;28;20056;-81
2022/08/14 03:00:07;;;;;;;19.38;17.45;;;;;;;;;;5072134;28;20052;-81
2022/08/14 03:02:36;;;;;;;19.83;17.90;;;;;;;;;;5073051;28;20502;-81
2022/08/14 03:05:23;;;;;;;19.40;17.45;;;;;;;;;;5073158;28;20060;-81
2022/08/14 03:07:51;;;;;;;18.77;16.98;;;;;;;;;;5073190;28;20076;-81
2022/08/14 03:10:19;;;;;;;19.10;17.40;;;;;;;;;;5071988;28;20052;-81
2022/08/14 03:12:57;;;;;;;18.98;17.05;;;;;;;;;;5072732;28;20497;-81
2022/08/14 03:15:26;;;;;;;19.50;17.58;;;;;;;;;;5071379;28;20489;-81
2022/08/14 03:17:53;;;;;;;19.17;17.38;;;;;;;;;;5071531;28;20101;-82
2022/08/14 03:20:26;;;;;;;20.73;18.08;;;;;;;;;;5072711;28;20521;-81
2022/08/14 03:22:55;;;;;;;19.60;17.75;;;;;;;;;;5072894;28;20044;-81
2022/08/14 03:25:22;;;;;;;20.25;18.33;;;;;;;;;;5071376;28;20056;-81
2022/08/14 03:27:50;;;;;;;20.67;18.67;;;;;;;;;;5071096;28;20086;-79
2022/08/14 03:30:25;;;;;;;20.40;18.45;;;;;;;;;;5072564;28;20498;-81
2022/08/14 03:33:06;;;;;;;20.50;18.60;;;;;;;;;;5072775;28;20132;-81
2022/08/14 03:35:34;;;;;;;21.40;19.30;;;;;;;;;;5071238;28;20394;-81
2022/08/14 03:38:08;;;;;;;21.15;19.02;;;;;;;;;;5072359;28;20040;-80
2022/08/14 03:40:55;;;;;;;23.80;19.67;;;;;;;;;;5072588;28;20049;-80
2022/08/14 03:43:25;;;;;;;23.52;19.73;;;;;;;;;;5071419;28;20106;-81
2022/08/14 03:45:59;;;;;;;;;;;;;;;;;;5073015;28;20080;-81
2022/08/14 03:48:26;;;;;;;22.83;20.58;;;;;;;;;;5071261;28;19920;-80
2022/08/14 03:50:58;;;;;;;21.38;19.38;;;;;;;;;;5070921;28;20421;-81
2022/08/14 03:53:27;;;;;;;22.15;19.98;;;;;;;;;;5072346;28;20079;-81
2022/08/14 03:55:57;;;;;;;23.88;21.63;;;;;;;;;;5070938;28;20053;-81
2022/08/14 03:58:24;;;;;;;23.20;21.00;;;;;;;;;;5072537;28;20122;-81
2022/08/14 04:01:04;;;;;;;28.65;25.15;;;;;;;;;;5071140;28;20045;-80
2022/08/14 04:03:32;;;;;;;33.92;28.65;;;;;;;;;;5071129;28;20509;-81
2022/08/14 04:06:03;;;;;;;39.80;32.63;;;;;;;;;;5072276;28;20049;-81
2022/08/14 04:08:34;;;;;;;32.38;27.13;;;;;;;;;;5071235;28;20049;-81
2022/08/14 04:11:01;;;;;;;28.13;25.05;;;;;;;;;;5071323;28;20087;-81
2022/08/14 04:13:35;;;;;;;23.23;20.80;;;;;;;;;;5070943;28;20076;-81
2022/08/14 04:16:08;;;;;;;21.65;19.33;;;;;;;;;;5072320;28;20044;-81
2022/08/14 04:18:39;;;;;;;;;;;;;;;;;;5071366;28;20067;-80
2022/08/14 04:21:07;;;;;;;20.75;18.65;;;;;;;;;;5072087;28;19965;-81
2022/08/14 04:23:36;;;;;;;20.42;18.30;;;;;;;;;;5071021;28;20055;-81
2022/08/14 04:26:07;;;;;;;22.23;19.90;;;;;;;;;;5070735;28;20096;-81
2022/08/14 04:28:42;;;;;;;22.23;19.95;;;;;;;;;;5071954;28;20044;-81
2022/08/14 04:31:29;;;;;;;21.55;19.35;;;;;;;;;;5071180;28;20131;-81
2022/08/14 04:34:16;;;;;;;22.00;19.90;;;;;;;;;;5073556;28;20091;-82
2022/08/14 04:45:19;;;;;;;22.80;20.35;;;;;;;;;;5077057;28;20123;-80
2022/08/14 04:50:35;;;;;;;25.90;20.30;;;;;;;;;;5077620;28;20056;-82
2022/08/14 04:53:12;;;;;;;23.48;21.17;;;;;;;;;;5076174;28;20075;-82
2022/08/14 04:55:40;;;;;;;21.92;19.92;;;;;;;;;;5077113;28;20433;-82
2022/08/14 04:58:09;;;;;;;20.27;18.38;;;;;;;;;;5075875;28;20058;-81
2022/08/14 05:00:53;;;;;;;19.90;18.00;;;;;;;;;;5076185;28;20048;-82
2022/08/14 05:03:25;;;;;;;19.85;17.95;;;;;;;;;;5077082;28;20080;-82
2022/08/14 05:05:55;;;;;;;19.52;17.45;;;;;;;;;;5077059;28;20056;-82
2022/08/14 05:08:23;;;;;;;18.42;16.65;;;;;;;;;;5076766;28;20429;-82
2022/08/14 05:11:09;;;;;;;18.20;16.42;;;;;;;;;;5076620;28;20477;-83
2022/08/14 05:13:39;;;;;;;18.83;17.02;;;;;;;;;;5076859;28;20048;-82
2022/08/14 05:16:30;;;;;;;17.45;15.75;;;;;;;;;;5076594;28;20049;-82
2022/08/14 05:18:57;;;;;;;18.13;16.48;;;;;;;;;;5074886;28;20585;-82
2022/08/14 05:21:44;;;;;;;17.13;15.52;;;;;;;;;;5075768;28;20041;-80
2022/08/14 05:24:31;;;;;;;18.85;16.35;;;;;;;;;;5076460;28;20047;-81
2022/08/14 05:27:01;;;;;;;20.02;14.68;;;;;;;;;;5075755;28;20123;-82
2022/08/14 05:29:28;;;;;;;14.48;13.02;;;;;;;;;;5076180;28;20071;-82
2022/08/14 05:31:55;;;;;;;13.60;12.20;;;;;;;;;;5075276;28;20048;-82
2022/08/14 05:34:29;;;;;;;13.52;12.25;;;;;;;;;;5075396;28;20040;-82
2022/08/14 05:36:58;;;;;;;13.32;12.13;;;;;;;;;;5076184;28;20409;-83
2022/08/14 05:39:30;;;;;;;12.70;11.10;;;;;;;;;;5076017;28;20044;-81
2022/08/14 05:41:57;;;;;;;12.00;10.85;;;;;;;;;;5075494;28;20052;-82
2022/08/14 05:44:26;;;;;;;11.95;10.82;;;;;;;;;;5074643;28;20424;-82
2022/08/14 05:46:57;;;;;;;32.20;13.32;;;;;;;;;;5074816;28;20052;-82
2022/08/14 05:49:24;;;;;;;27.80;12.82;;;;;;;;;;5076724;28;20049;-82
2022/08/14 05:51:59;;;;;;;14.57;12.10;;;;;;;;;;5074878;28;20476;-82
2022/08/14 05:54:28;;;;;;;13.23;10.73;;;;;;;;;;5074952;28;20147;-81
2022/08/14 05:57:01;;;;;;;;;;;;;;;;;;5075349;28;20040;-82
2022/08/14 05:59:28;;;;;;;12.05;10.50;;;;;;;;;;5074126;28;20408;-82
2022/08/14 06:02:05;;;;;;;15.98;10.82;;;;;;;;;;5075438;28;20476;-82
2022/08/14 06:04:32;;;;;;;10.90;9.90;;;;;;;;;;5074148;28;20135;-82
2022/08/14 06:06:59;;;;;;;10.63;9.55;;;;;;;;;;5079762;22;20062;-81
2022/08/14 06:09:27;;;;;;;11.05;10.05;;;;;;;;;;5040633;28;20052;-81
2022/08/14 06:12:02;;;;;;;11.50;10.38;;;;;;;;;;5040924;28;20052;-81
2022/08/14 06:14:30;;;;;;;12.07;10.27;;;;;;;;;;5040999;28;20041;-81
2022/08/14 06:16:57;;;;;;;11.10;10.00;;;;;;;;;;5039840;28;20049;-81
2022/08/14 06:19:25;;;;;;;14.25;11.25;;;;;;;;;;5039779;28;20049;-81
2022/08/14 06:21:55;;;;;;;13.45;11.18;;;;;;;;;;5039823;28;20091;-81
2022/08/14 06:24:25;;;;;;;12.90;11.75;;;;;;;;;;5039355;28;20049;-81
2022/08/14 06:26:52;;;;;;;12.75;11.07;;;;;;;;;;5040074;28;20056;-81
2022/08/14 06:29:29;;;;;;;16.40;11.88;;;;;;;;;;5039362;28;20049;-80
2022/08/14 06:31:59;;;;;;;27.42;13.32;;;;;;;;;;5040971;28;20540;-80
2022/08/14 06:34:46;;;;;;;31.08;13.05;;;;;;;;;;5037564;28;20125;-81
2022/08/14 06:37:50;;;;;;;28.38;12.77;;;;;;;;;;5044346;28;20114;-81
2022/08/14 06:40:19;;;;;;;20.33;12.93;;;;;;;;;;5056092;28;20049;-80
2022/08/14 06:42:53;;;;;;;26.90;14.15;;;;;;;;;;5057613;28;20036;-80
2022/08/14 06:45:21;;;;;;;15.80;12.40;;;;;;;;;;5058125;28;20045;-80
2022/08/14 06:47:53;;;;;;;19.70;13.77;;;;;;;;;;5058193;28;20041;-79
2022/08/14 06:50:22;;;;;;;14.50;13.00;;;;;;;;;;5058982;28;20029;-80
2022/08/14 06:52:55;;;;;;;22.85;13.93;;;;;;;;;;5045493;28;20061;-81
2022/08/14 06:55:22;;;;;;;18.95;12.80;;;;;;;;;;5038884;28;20049;-81
2022/08/14 06:57:55;;;;;;;21.20;12.70;;;;;;;;;;5036834;28;20051;-81
2022/08/14 07:00:25;;;;;;;12.45;11.25;;;;;;;;;;5042650;28;20284;-81
2022/08/14 07:05:46;;;;;;;23.15;12.82;;;;;;;;;;5038849;28;20088;-81
2022/08/14 07:08:34;;;;;;;14.35;11.52;;;;;;;;;;5041568;28;20053;-81
2022/08/14 07:11:04;;;;;;;14.43;10.70;;;;;;;;;;5037812;28;20073;-81
2022/08/14 07:13:32;;;;;;;17.40;11.50;;;;;;;;;;5037804;28;20495;-80
2022/08/14 07:16:11;;;;;;;14.75;10.93;;;;;;;;;;5052436;28;20050;-81
2022/08/14 07:18:44;;;;;;;14.50;10.70;;;;;;;;;;5034045;28;20072;-80
2022/08/14 07:21:16;;;;;;;12.10;10.75;;;;;;;;;;5037171;28;20049;-80
2022/08/14 07:23:44;;;;;;;13.75;9.27;;;;;;;;;;5037697;28;20489;-80
2022/08/14 07:26:12;;;;;;;12.25;10.45;;;;;;;;;;5035065;28;20046;-80
2022/08/14 07:28:41;;;;;;;11.55;10.30;;;;;;;;;;5035870;28;20052;-80
2022/08/14 07:31:10;;;;;;;12.52;9.23;;;;;;;;;;5036181;28;20046;-81
2022/08/14 07:33:44;;;;;;;10.90;9.85;;;;;;;;;;5034421;28;20081;-81
2022/08/14 07:36:17;;;;;;;11.43;9.35;;;;;;;;;;5035929;28;20049;-80
2022/08/14 07:38:56;;;;;;;9.77;8.98;;;;;;;;;;5035285;28;20045;-80
2022/08/14 07:41:23;;;;;;;9.63;8.82;;;;;;;;;;5034198;28;20045;-80
2022/08/14 07:43:59;;;;;;;9.48;8.68;;;;;;;;;;5034088;28;20053;-80
2022/08/14 07:46:46;;;;;;;8.50;7.78;;;;;;;;;;5035154;28;20406;-80
2022/08/14 07:49:13;;;;;;;9.57;8.52;;;;;;;;;;5036745;28;20049;-80
2022/08/14 07:51:44;;;;;;;8.00;7.18;;;;;;;;;;5037513;28;20132;-80
2022/08/14 07:54:15;;;;;;;8.05;7.30;;;;;;;;;;5034013;28;20128;-80
2022/08/14 07:56:56;;;;;;;6.70;6.20;;;;;;;;;;5036211;28;20054;-80
2022/08/14 07:59:26;;;;;;;7.38;6.68;;;;;;;;;;5037014;28;20124;-81
2022/08/14 08:02:11;;;;;;;7.10;6.60;;;;;;;;;;5035678;28;20521;-80
2022/08/14 08:04:47;;;;;;;7.38;6.80;;;;;;;;;;5036438;28;20049;-80
2022/08/14 08:07:15;;;;;;;7.40;6.80;;;;;;;;;;5038727;28;20395;-80
2022/08/14 08:09:49;;;;;;;6.57;5.97;;;;;;;;;;5034552;28;20506;-79
2022/08/14 08:12:19;;;;;;;6.45;5.85;;;;;;;;;;5035203;28;20057;-81
2022/08/14 08:14:55;;;;;;;6.32;5.88;;;;;;;;;;5036499;28;20100;-80
2022/08/14 08:17:38;;;;;;;6.80;6.18;;;;;;;;;;5040389;28;20076;-80
2022/08/14 08:20:20;;;;;;;5.90;5.55;;;;;;;;;;5039899;28;20498;-80
2022/08/14 08:22:49;;;;;;;6.00;5.60;;;;;;;;;;5037646;28;20053;-81
2022/08/14 08:25:23;;;;;;;5.80;5.40;;;;;;;;;;5038997;28;20557;-80
2022/08/14 08:28:01;;;;;;;5.80;5.25;;;;;;;;;;5037592;28;20045;-80
2022/08/14 08:30:36;;;;;;;5.45;5.15;;;;;;;;;;5037811;28;20421;-81
2022/08/14 08:33:16;;;;;;;5.70;5.07;;;;;;;;;;5038375;28;20465;-81
2022/08/14 08:35:44;;;;;;;4.82;4.40;;;;;;;;;;5038917;28;20045;-82
2022/08/14 08:38:18;;;;;;;6.72;5.57;;;;;;;;;;5039645;28;20109;-80
2022/08/14 08:41:06;;;;;;;5.25;4.80;;;;;;;;;;5039230;28;20128;-79
2022/08/14 08:43:37;;;;;;;4.35;4.05;;;;;;;;;;5040982;28;20056;-81
2022/08/14 08:46:10;;;;;;;5.05;4.30;;;;;;;;;;5040481;28;20053;-82
2022/08/14 08:48:56;;;;;;;4.50;4.20;;;;;;;;;;5039859;28;20453;-81
2022/08/14 08:51:26;;;;;;;4.80;4.50;;;;;;;;;;5038571;28;20087;-79
2022/08/14 08:54:04;;;;;;;4.07;3.85;;;;;;;;;;5039324;28;20136;-80
2022/08/14 08:56:34;;;;;;;4.13;3.78;;;;;;;;;;5039871;28;20067;-80
2022/08/14 08:59:24;;;;;;;4.20;3.90;;;;;;;;;;5039737;28;20050;-80
2022/08/14 09:01:57;;;;;;;4.53;4.25;;;;;;;;;;5039344;28;20517;-80
2022/08/14 09:04:27;;;;;;;4.40;4.00;;;;;;;;;;5039121;28;20101;-80
2022/08/14 09:06:54;;;;;;;5.57;4.63;;;;;;;;;;5038747;28;20411;-80
2022/08/14 09:09:53;;;;;;;3.67;3.47;;;;;;;;;;5040120;28;20053;-81
2022/08/14 09:12:29;;;;;;;3.80;3.58;;;;;;;;;;5038197;28;20096;-80
2022/08/14 09:15:03;;;;;;;3.78;3.58;;;;;;;;;;5037674;28;20050;-80
2022/08/14 09:17:37;;;;;;;4.25;3.85;;;;;;;;;;5041191;28;20075;-83
2022/08/14 09:20:07;;;;;;;3.97;3.67;;;;;;;;;;5039817;28;20041;-81
2022/08/14 09:22:39;;;;;;;3.75;3.38;;;;;;;;;;5036936;28;20045;-82
2022/08/14 09:25:14;;;;;;;3.83;3.38;;;;;;;;;;5039316;28;20053;-81
2022/08/14 09:27:41;;;;;;;3.50;3.20;;;;;;;;;;5039349;28;20050;-82
2022/08/14 09:30:09;;;;;;;3.90;3.60;;;;;;;;;;5039369;28;20517;-81
2022/08/14 09:33:02;;;;;;;3.40;3.20;;;;;;;;;;5039191;28;20059;-81
2022/08/14 09:35:47;;;;;;;4.00;3.60;;;;;;;;;;5037950;28;20498;-81
2022/08/14 09:38:44;;;;;;;4.05;3.60;;;;;;;;;;5038709;28;20049;-83
2022/08/14 09:41:34;;;;;;;4.07;3.78;;;;;;;;;;5039346;28;20074;-82
2022/08/14 09:44:40;;;;;;;3.83;3.55;;;;;;;;;;5038888;28;20565;-83
2022/08/14 09:47:11;;;;;;;4.00;3.70;;;;;;;;;;5037637;28;20049;-82
2022/08/14 09:49:41;;;;;;;3.97;3.67;;;;;;;;;;5038130;28;20046;-82
2022/08/14 09:52:18;;;;;;;3.95;3.65;;;;;;;;;;5039398;28;20494;-82
2022/08/14 09:55:00;;;;;;;3.80;3.55;;;;;;;;;;5038443;28;20088;-83
2022/08/14 09:57:29;;;;;;;6.28;3.45;;;;;;;;;;5039076;28;20041;-81
2022/08/14 09:59:57;;;;;;;3.67;3.33;;;;;;;;;;5038486;28;20068;-82
2022/08/14 10:02:32;;;;;;;3.63;3.33;;;;;;;;;;5038137;28;20092;-81
2022/08/14 10:05:03;;;;;;;4.10;3.80;;;;;;;;;;5037277;28;20124;-84
2022/08/14 10:07:34;;;;;;;3.38;3.22;;;;;;;;;;5038218;28;20557;-83
2022/08/14 10:10:01;;;;;;;3.75;3.45;;;;;;;;;;5037627;28;20072;-81
2022/08/14 10:12:48;;;;;;;3.50;3.30;;;;;;;;;;5037770;28;20060;-82
2022/08/14 10:15:26;;;;;;;5.13;3.30;;;;;;;;;;5038258;28;20132;-82
2022/08/14 10:18:09;;;;;;;5.40;4.05;;;;;;;;;;5038234;28;20045;-82
2022/08/14 10:20:51;;;;;;;4.85;4.03;;;;;;;;;;5037906;28;20128;-82
2022/08/14 10:23:21;;;;;;;3.58;3.38;;;;;;;;;;5038594;28;20045;-84
2022/08/14 10:25:51;;;;;;;3.90;3.33;;;;;;;;;;5036840;28;20095;-81
2022/08/14 10:28:20;;;;;;;6.75;3.72;;;;;;;;;;5035573;28;20076;-80
2022/08/14 10:31:24;;;;;;;6.53;3.85;;;;;;;;;;5038216;28;20165;-81
2022/08/14 10:34:00;;;;;;;3.40;3.20;;;;;;;;;;5036686;28;20050;-80
2022/08/14 10:36:33;;;;;;;3.67;3.33;;;;;;;;;;5035816;28;20137;-80
2022/08/14 10:39:08;;;;;;;3.90;3.60;;;;;;;;;;5040237;28;20049;-81
2022/08/14 10:41:39;;;;;;;4.00;3.70;;;;;;;;;;5042187;28;20052;-80
2022/08/14 10:44:15;;;;;;;3.47;3.28;;;;;;;;;;5039881;28;20041;-81
2022/08/14 10:46:52;;;;;;;3.92;3.40;;;;;;;;;;5039918;28;20560;-80
2022/08/14 10:49:48;;;;;;;3.78;3.58;;;;;;;;;;5039745;28;20060;-81
2022/08/14 10:52:20;;;;;;;3.97;3.75;;;;;;;;;;5038785;28;20128;-81
2022/08/14 10:54:48;;;;;;;4.32;3.92;;;;;;;;;;5038494;28;20045;-79
2022/08/14 10:57:26;;;;;;;4.10;3.70;;;;;;;;;;5037048;28;20053;-79
2022/08/14 10:59:56;;;;;;;5.30;3.72;;;;;;;;;;5035640;28;20095;-80
2022/08/14 11:02:34;;;;;;;4.03;3.80;;;;;;;;;;5038071;28;20056;-79
2022/08/14 11:05:22;;;;;;;3.85;3.58;;;;;;;;;;5036554;28;20480;-80
2022/08/14 11:07:56;;;;;;;4.30;4.00;;;;;;;;;;5037108;28;20073;-80
2022/08/14 11:10:37;;;;;;;3.80;3.60;;;;;;;;;;5037159;28;20046;-81
2022/08/14 11:13:09;;;;;;;3.70;3.40;;;;;;;;;;5036639;28;20053;-80
2022/08/14 11:15:36;;;;;;;4.03;3.72;;;;;;;;;;5038416;28;20465;-81
2022/08/14 11:18:07;;;;;;;3.40;3.30;;;;;;;;;;5036668;28;20049;-80
2022/08/14 11:20:38;;;;;;;6.90;3.42;;;;;;;;;;5035773;28;20469;-80
2022/08/14 11:23:07;;;;;;;3.53;3.30;;;;;;;;;;5038594;28;20049;-81
2022/08/14 11:25:36;;;;;;;2.97;2.88;;;;;;;;;;5037794;28;20049;-80
2022/08/14 11:28:21;;;;;;;3.88;3.67;;;;;;;;;;5037139;28;20426;-80
2022/08/14 11:31:10;;;;;;;4.03;3.72;;;;;;;;;;5039113;28;20132;-79
2022/08/14 11:33:38;;;;;;;3.30;3.00;;;;;;;;;;5036459;28;20049;-80
2022/08/14 11:36:06;;;;;;;3.65;3.35;;;;;;;;;;5037027;28;20049;-79
2022/08/14 11:38:45;;;;;;;3.95;3.65;;;;;;;;;;5035470;28;20045;-81
2022/08/14 11:41:14;;;;;;;3.88;3.40;;;;;;;;;;5037967;28;20081;-80
2022/08/14 11:43:44;;;;;;;3.75;3.45;;;;;;;;;;5035863;28;20399;-80
2022/08/14 11:46:25;;;;;;;4.15;3.45;;;;;;;;;;5035288;28;20089;-79
2022/08/14 11:49:04;;;;;;;4.82;3.83;;;;;;;;;;5038137;28;20055;-80
2022/08/14 11:51:33;;;;;;;3.80;3.60;;;;;;;;;;5037726;28;20072;-80
2022/08/14 11:54:20;;;;;;;4.68;3.53;;;;;;;;;;5037186;28;20049;-80
2022/08/14 11:57:01;;;;;;;3.65;3.38;;;;;;;;;;5038045;28;20091;-79
2022/08/14 11:59:33;;;;;;;4.20;3.90;;;;;;;;;;5037567;28;20049;-80
2022/08/14 12:02:14;;;;;;;4.18;3.78;;;;;;;;;;5038188;28;20075;-80
2022/08/14 12:05:02;;;;;;;4.13;3.70;;;;;;;;;;5034146;28;20552;-81
2022/08/14 12:07:30;;;;;;;3.47;3.28;;;;;;;;;;5077260;22;20065;-82
2022/08/14 12:09:58;;;;;;;7.53;3.80;;;;;;;;;;5056931;28;20049;-82
2022/08/14 12:12:26;;;;;;;3.80;3.60;;;;;;;;;;5054351;28;20045;-82
2022/08/14 12:15:03;;;;;;;4.05;3.75;;;;;;;;;;5055121;28;20071;-80
2022/08/14 12:17:32;;;;;;;4.05;3.85;;;;;;;;;;5053002;28;20410;-82
2022/08/14 12:20:05;;;;;;;4.05;3.72;;;;;;;;;;5055072;28;20044;-81
2022/08/14 12:22:36;;;;;;;4.40;4.00;;;;;;;;;;5053450;28;20067;-82
2022/08/14 12:25:11;;;;;;;4.53;3.67;;;;;;;;;;5052900;28;20080;-82
2022/08/14 12:27:41;;;;;;;4.15;3.80;;;;;;;;;;5053056;28;20049;-81
2022/08/14 12:30:39;;;;;;;4.40;4.10;;;;;;;;;;5054204;28;20064;-80
2022/08/14 12:33:26;;;;;;;4.55;4.15;;;;;;;;;;5054614;28;20049;-83
2022/08/14 12:35:59;;;;;;;4.25;3.83;;;;;;;;;;5053091;28;20106;-81
2022/08/14 12:38:36;;;;;;;5.53;4.30;;;;;;;;;;5054781;28;20057;-82
2022/08/14 12:41:09;;;;;;;4.47;4.18;;;;;;;;;;5052921;28;20056;-82
2022/08/14 12:43:46;;;;;;;7.57;4.18;;;;;;;;;;5053056;28;20510;-82
2022/08/14 12:46:24;;;;;;;4.28;3.88;;;;;;;;;;5054862;28;20045;-82
2022/08/14 12:48:55;;;;;;;4.38;4.05;;;;;;;;;;5052660;28;20051;-82
2022/08/14 12:51:24;;;;;;;4.47;3.92;;;;;;;;;;5052950;28;20458;-82
2022/08/14 12:53:54;;;;;;;8.55;4.45;;;;;;;;;;5054282;28;20552;-82
2022/08/14 12:56:26;;;;;;;4.53;4.13;;;;;;;;;;5054452;28;20049;-84
2022/08/14 12:59:00;;;;;;;4.30;4.00;;;;;;;;;;5053734;28;20057;-84
2022/08/14 13:01:29;;;;;;;6.95;3.80;;;;;;;;;;5054639;28;20044;-82
2022/08/14 13:04:11;;;;;;;4.20;3.90;;;;;;;;;;5057256;28;20049;-81
2022/08/14 13:06:40;;;;;;;4.65;4.25;;;;;;;;;;5056996;28;20053;-82
2022/08/14 13:09:12;;;;;;;4.93;4.15;;;;;;;;;;5054901;28;20049;-81
2022/08/14 13:11:43;;;;;;;4.90;4.30;;;;;;;;;;5054533;28;20040;-82
2022/08/14 13:14:14;;;;;;;4.30;3.88;;;;;;;;;;5056738;28;20049;-82
2022/08/14 13:16:44;;;;;;;6.25;4.15;;;;;;;;;;5055416;28;20088;-80
2022/08/14 13:19:17;;;;;;;5.15;4.68;;;;;;;;;;5055258;28;20494;-81
2022/08/14 13:21:47;;;;;;;4.53;4.22;;;;;;;;;;5056384;28;20053;-80
2022/08/14 13:24:32;;;;;;;4.35;4.00;;;;;;;;;;5055955;28;20060;-81
2022/08/14 13:27:02;;;;;;;4.40;4.10;;;;;;;;;;5056732;28;20059;-81
2022/08/14 13:29:34;;;;;;;3.95;3.65;;;;;;;;;;5056397;28;20049;-82
2022/08/14 13:32:04;;;;;;;5.75;4.05;;;;;;;;;;5054968;28;20072;-82
2022/08/14 13:34:32;;;;;;;4.78;4.15;;;;;;;;;;5054751;28;20045;-81
2022/08/14 13:37:00;;;;;;;5.13;4.70;;;;;;;;;;5055706;28;20049;-82
2022/08/14 13:39:31;;;;;;;4.78;4.47;;;;;;;;;;5056077;28;20049;-82
2022/08/14 13:42:07;;;;;;;6.55;3.90;;;;;;;;;;5056422;28;20053;-82
2022/08/14 13:44:39;;;;;;;4.35;4.05;;;;;;;;;;5054527;28;20052;-81
2022/08/14 13:47:09;;;;;;;4.35;4.07;;;;;;;;;;5054310;28;20474;-82
2022/08/14 13:49:37;;;;;;;7.38;4.78;;;;;;;;;;5054436;28;20777;-82
2022/08/14 13:52:24;;;;;;;4.93;4.45;;;;;;;;;;5055832;28;20045;-82
2022/08/14 13:55:12;;;;;;;6.18;4.30;;;;;;;;;;5056078;28;20513;-82
2022/08/14 13:57:40;;;;;;;4.63;4.22;;;;;;;;;;5056200;28;20076;-83
2022/08/14 14:00:19;;;;;;;4.43;4.07;;;;;;;;;;5055901;28;20041;-81
2022/08/14 14:02:59;;;;;;;4.63;4.28;;;;;;;;;;5053446;28;20053;-82
2022/08/14 14:05:27;;;;;;;4.53;4.22;;;;;;;;;;5054652;28;20095;-80
2022/08/14 14:08:16;;;;;;;5.68;4.47;;;;;;;;;;5054270;28;20098;-81
2022/08/14 14:11:03;;;;;;;4.55;4.20;;;;;;;;;;5054330;28;20501;-80
2022/08/14 14:13:31;;;;;;;5.97;4.43;;;;;;;;;;5055654;28;20095;-82
2022/08/14 14:16:01;;;;;;;4.65;4.18;;;;;;;;;;5057172;28;20045;-82
2022/08/14 14:18:30;;;;;;;4.55;4.15;;;;;;;;;;5054619;28;20494;-82
2022/08/14 14:21:01;;;;;;;4.53;3.88;;;;;;;;;;5054375;28;20044;-82
2022/08/14 14:23:30;;;;;;;5.18;3.90;;;;;;;;;;5055269;28;20045;-82
2022/08/14 14:25:58;;;;;;;4.40;4.10;;;;;;;;;;5053798;28;20059;-81
2022/08/14 14:28:31;;;;;;;4.78;4.28;;;;;;;;;;5054114;28;20501;-80
2022/08/14 14:31:01;;;;;;;3.97;3.78;;;;;;;;;;5054974;28;20045;-82
2022/08/14 14:33:33;;;;;;;4.90;4.40;;;;;;;;;;5054417;28;20098;-81
2022/08/14 14:36:21;;;;;;;4.22;3.75;;;;;;;;;;5054277;28;20045;-80
2022/08/14 14:38:57;;;;;;;4.45;4.03;;;;;;;;;;5054063;28;20139;-80
2022/08/14 14:41:25;;;;;;;4.20;3.97;;;;;;;;;;5054928;28;20049;-81
2022/08/14 14:44:07;;;;;;;4.90;4.40;;;;;;;;;;5054766;28;20091;-81
2022/08/14 14:46:36;;;;;;;4.70;4.30;;;;;;;;;;5054618;28;20124;-79
2022/08/14 14:49:12;;;;;;;4.20;3.92;;;;;;;;;;5054160;28;20559;-80
2022/08/14 14:51:44;;;;;;;5.20;4.30;;;;;;;;;;5054405;28;20059;-81
2022/08/14 14:54:17;;;;;;;4.80;4.40;;;;;;;;;;5054301;28;20048;-80
2022/08/14 14:56:57;;;;;;;4.63;4.20;;;;;;;;;;5053601;28;20056;-81
2022/08/14 14:59:25;;;;;;;5.03;4.38;;;;;;;;;;5059116;28;20111;-79
2022/08/14 15:01:59;;;;;;;4.80;3.97;;;;;;;;;;5057862;28;20049;-82
2022/08/14 15:04:26;;;;;;;4.85;4.45;;;;;;;;;;5056772;28;20103;-80
2022/08/14 15:06:54;;;;;;;5.38;4.55;;;;;;;;;;5057217;28;20053;-81
2022/08/14 15:09:21;;;;;;;4.70;4.38;;;;;;;;;;5057541;28;20045;-81
2022/08/14 15:11:49;;;;;;;5.10;4.10;;;;;;;;;;5057029;28;20056;-81
2022/08/14 15:14:19;;;;;;;4.53;4.22;;;;;;;;;;5056546;28;20049;-81
2022/08/14 15:17:06;;;;;;;5.95;4.20;;;;;;;;;;5056411;28;20048;-81
2022/08/14 15:19:36;;;;;;;4.95;4.20;;;;;;;;;;5055313;28;20126;-82
2022/08/14 15:22:05;;;;;;;4.30;3.97;;;;;;;;;;5055897;28;20045;-82
2022/08/14 15:24:33;;;;;;;4.38;4.13;;;;;;;;;;5053957;28;20448;-81
2022/08/14 15:27:05;;;;;;;5.15;4.30;;;;;;;;;;5054141;28;20124;-81
2022/08/14 15:29:37;;;;;;;;;;;;;;;;;;5056061;28;20052;-82
2022/08/14 15:32:05;;;;;;;5.10;4.30;;;;;;;;;;5054482;28;19990;-81
2022/08/14 15:34:36;;;;;;;5.22;4.22;;;;;;;;;;5054993;28;20045;-79